Time;durP1;ratioP1;P1;durP2;ratioP2;P2;SDS_P1;SDS_P2;PMS_P1;PMS_P2;Temp;Humidity;BMP_temperature;BMP_pressure;BME280_temperature;BME280_humidity;BME280_pressure;Samples;Min_cycle;Max_cycle;Signal;HPM_P1;HPM_P2
2022/01/04 00:02:16;;;;;;;19.77;5.30;;;7.50;99.90;;;;;;5051758;28;20052;-72
2022/01/04 00:04:43;;;;;;;21.80;4.60;;;7.40;99.90;;;;;;5051757;28;20098;-73
2022/01/04 00:07:10;;;;;;;19.95;4.85;;;7.40;99.90;;;;;;5067691;28;20496;-72
2022/01/04 00:09:41;;;;;;;12.02;3.85;;;7.40;99.90;;;;;;5051874;28;20079;-73
2022/01/04 00:14:49;;;;;;;18.70;4.88;;;7.30;99.90;;;;;;5057615;28;19920;-73
2022/01/04 00:17:16;;;;;;;14.80;4.47;;;7.30;99.90;;;;;;5088788;28;20052;-73
2022/01/04 00:19:42;;;;;;;17.98;4.68;;;7.20;99.90;;;;;;5071815;28;20056;-72
2022/01/04 00:22:09;;;;;;;22.17;4.28;;;7.20;99.90;;;;;;5070834;28;20105;-73
2022/01/04 00:24:38;;;;;;;19.23;5.43;;;7.20;99.90;;;;;;5071603;28;20053;-72
2022/01/04 00:27:05;;;;;;;22.42;4.97;;;7.10;99.90;;;;;;5072714;28;20052;-71
2022/01/04 00:29:32;;;;;;;24.42;5.32;;;7.10;99.90;;;;;;5070553;28;20496;-73
2022/01/04 00:31:59;;;;;;;22.13;5.32;;;7.10;99.90;;;;;;5072584;28;20056;-73
2022/01/04 00:34:26;;;;;;;22.27;5.28;;;7.00;99.90;;;;;;5072867;28;20048;-73
2022/01/04 00:36:53;;;;;;;22.23;4.05;;;7.00;99.90;;;;;;5070972;28;20109;-73
2022/01/04 00:39:19;;;;;;;14.07;4.80;;;7.10;99.90;;;;;;5071743;28;20048;-73
2022/01/04 00:41:48;;;;;;;21.55;5.68;;;7.10;99.90;;;;;;5071714;28;20110;-73
2022/01/04 00:44:15;;;;;;;22.98;5.40;;;7.10;99.90;;;;;;5069270;28;20107;-73
2022/01/04 00:46:42;;;;;;;26.77;5.53;;;7.10;99.90;;;;;;5068132;28;20053;-73
2022/01/04 00:49:10;;;;;;;26.20;6.85;;;7.10;99.90;;;;;;5071494;28;20053;-73
2022/01/04 00:51:37;;;;;;;23.05;5.90;;;7.10;99.90;;;;;;5073854;28;20049;-72
2022/01/04 00:54:05;;;;;;;18.08;6.85;;;7.10;99.90;;;;;;5075588;28;20439;-73
2022/01/04 00:56:32;;;;;;;23.70;6.03;;;7.20;99.90;;;;;;5074532;28;20040;-73
2022/01/04 00:59:00;;;;;;;23.73;6.63;;;7.10;99.90;;;;;;5075252;28;20080;-73
2022/01/04 01:01:27;;;;;;;20.73;6.78;;;7.20;99.90;;;;;;5075163;28;20049;-73
2022/01/04 01:03:55;;;;;;;19.92;6.80;;;7.10;99.90;;;;;;5091612;28;20105;-73
2022/01/04 01:06:22;;;;;;;22.63;7.15;;;7.20;99.90;;;;;;5074860;28;20049;-73
2022/01/04 01:08:50;;;;;;;26.63;7.78;;;7.20;99.90;;;;;;5091641;28;20491;-73
2022/01/04 01:11:17;;;;;;;26.42;7.38;;;7.30;99.90;;;;;;5074237;28;20105;-72
2022/01/04 01:13:44;;;;;;;23.52;6.38;;;7.30;99.90;;;;;;5092048;28;20117;-72
2022/01/04 01:16:12;;;;;;;24.08;6.15;;;7.30;99.90;;;;;;5074920;28;20133;-71
2022/01/04 01:18:39;;;;;;;24.85;6.88;;;7.30;99.90;;;;;;5073969;28;20052;-71
2022/01/04 01:21:07;;;;;;;26.13;7.47;;;7.30;99.90;;;;;;5074835;28;20052;-71
2022/01/04 01:23:35;;;;;;;20.38;6.78;;;7.30;99.90;;;;;;5074712;28;20489;-72
2022/01/04 01:26:03;;;;;;;22.77;7.15;;;7.40;99.90;;;;;;5074217;28;20056;-72
2022/01/04 01:28:30;;;;;;;28.65;7.68;;;7.30;99.90;;;;;;5074637;28;20127;-71
2022/01/04 01:30:57;;;;;;;28.17;6.80;;;7.30;99.90;;;;;;5091432;28;20071;-71
2022/01/04 01:33:27;;;;;;;18.83;6.78;;;7.40;99.90;;;;;;5073856;28;20052;-73
2022/01/04 01:35:54;;;;;;;23.77;6.82;;;7.40;99.90;;;;;;5074730;28;20052;-72
2022/01/04 01:38:21;;;;;;;21.90;6.20;;;7.40;99.90;;;;;;5074634;28;20105;-71
2022/01/04 01:40:48;;;;;;;22.10;6.57;;;7.40;99.90;;;;;;5073670;28;20482;-71
2022/01/04 01:43:16;;;;;;;24.08;8.00;;;7.50;99.90;;;;;;5074727;28;20055;-71
2022/01/04 01:45:43;;;;;;;17.92;6.18;;;7.50;99.90;;;;;;5057380;28;20122;-72
2022/01/04 01:48:10;;;;;;;23.25;7.57;;;7.50;99.90;;;;;;5054354;28;20061;-71
2022/01/04 01:50:39;;;;;;;23.88;6.55;;;7.50;99.90;;;;;;5070975;28;20056;-74
2022/01/04 01:53:06;;;;;;;20.25;6.60;;;7.50;99.90;;;;;;5059738;28;20052;-71
2022/01/04 01:55:33;;;;;;;33.28;8.00;;;7.50;99.90;;;;;;5073869;28;20052;-71
2022/01/04 01:58:00;;;;;;;18.33;5.90;;;7.50;99.90;;;;;;5073896;28;20166;-73
2022/01/04 02:00:30;;;;;;;22.63;6.30;;;7.50;99.90;;;;;;5073687;28;20052;-73
2022/01/04 02:02:59;;;;;;;18.83;7.05;;;7.50;99.90;;;;;;5074726;28;20133;-72
2022/01/04 02:05:27;;;;;;;21.77;6.25;;;7.50;99.90;;;;;;5074225;28;20057;-72
2022/01/04 02:07:55;;;;;;;29.02;6.20;;;7.40;99.90;;;;;;5073079;28;20109;-72
2022/01/04 02:10:22;;;;;;;26.73;7.00;;;7.40;99.90;;;;;;5090441;28;20106;-72
2022/01/04 02:12:49;;;;;;;27.65;7.25;;;7.40;99.90;;;;;;5073622;28;20102;-72
2022/01/04 02:15:18;;;;;;;26.23;6.78;;;7.40;99.90;;;;;;5073161;28;20554;-72
2022/01/04 02:17:45;;;;;;;23.30;5.07;;;7.30;99.90;;;;;;5073655;28;20056;-73
2022/01/04 02:20:15;;;;;;;24.20;7.20;;;7.30;99.90;;;;;;5073654;28;20492;-72
2022/01/04 02:22:43;;;;;;;22.27;5.87;;;7.30;99.90;;;;;;5070760;28;20045;-72
2022/01/04 02:25:10;;;;;;;23.80;5.93;;;7.30;99.90;;;;;;5053973;28;20099;-72
2022/01/04 02:27:39;;;;;;;24.20;6.90;;;7.20;99.90;;;;;;5053537;28;20049;-72
2022/01/04 02:30:09;;;;;;;18.60;5.97;;;7.20;99.90;;;;;;5054172;28;20122;-72
2022/01/04 02:32:36;;;;;;;22.17;6.53;;;7.20;99.90;;;;;;5053161;28;20095;-72
2022/01/04 02:35:05;;;;;;;24.75;5.72;;;7.20;99.90;;;;;;5069584;28;20562;-72
2022/01/04 02:37:33;;;;;;;23.35;5.80;;;7.20;99.90;;;;;;5054185;28;20095;-72
2022/01/04 02:40:00;;;;;;;21.17;6.75;;;7.20;99.90;;;;;;5053525;28;20119;-72
2022/01/04 02:42:27;;;;;;;30.02;6.22;;;7.30;99.90;;;;;;5069183;28;20092;-72
2022/01/04 02:44:54;;;;;;;26.70;6.65;;;7.30;99.90;;;;;;5053338;28;20080;-73
2022/01/04 02:47:21;;;;;;;24.42;6.20;;;7.30;99.90;;;;;;5053120;28;20138;-73
2022/01/04 02:49:48;;;;;;;19.23;7.00;;;7.40;99.90;;;;;;5069388;28;20052;-73
2022/01/04 02:52:15;;;;;;;20.45;5.75;;;7.40;99.90;;;;;;5069528;28;20049;-74
2022/01/04 02:54:44;;;;;;;24.00;6.47;;;7.40;99.90;;;;;;5071685;28;20053;-73
2022/01/04 02:57:11;;;;;;;20.02;5.93;;;7.40;99.90;;;;;;5072100;28;20146;-72
2022/01/04 02:59:38;;;;;;;24.13;6.32;;;7.50;99.90;;;;;;5073050;28;20052;-73
2022/01/04 03:02:05;;;;;;;25.52;6.18;;;7.50;99.90;;;;;;5072560;28;20102;-73
2022/01/04 03:04:32;;;;;;;23.25;6.93;;;7.50;99.90;;;;;;5072157;28;20048;-73
2022/01/04 03:06:59;;;;;;;22.70;6.60;;;7.50;99.90;;;;;;5089352;28;20048;-72
2022/01/04 03:09:26;;;;;;;31.73;6.72;;;7.50;99.90;;;;;;5072823;28;20109;-73
2022/01/04 03:11:54;;;;;;;18.05;6.13;;;7.50;99.90;;;;;;5071851;28;20048;-72
2022/01/04 03:14:21;;;;;;;25.77;6.65;;;7.50;99.90;;;;;;5088508;28;20048;-72
2022/01/04 03:16:48;;;;;;;18.70;6.50;;;7.50;99.90;;;;;;5072713;28;20056;-72
2022/01/04 03:19:15;;;;;;;21.67;5.70;;;7.60;99.90;;;;;;5088573;28;20078;-72
2022/01/04 03:21:44;;;;;;;23.05;7.18;;;7.60;99.90;;;;;;5072422;28;20056;-72
2022/01/04 03:24:13;;;;;;;20.10;6.25;;;7.60;99.90;;;;;;5073878;28;20106;-72
2022/01/04 03:26:40;;;;;;;26.88;7.65;;;7.60;99.90;;;;;;5052437;28;20053;-71
2022/01/04 03:29:10;;;;;;;26.92;5.57;;;7.60;99.90;;;;;;5052481;28;20061;-72
2022/01/04 03:31:39;;;;;;;19.75;6.97;;;7.60;99.90;;;;;;5051809;28;20404;-72
2022/01/04 03:34:06;;;;;;;19.50;5.57;;;7.60;99.90;;;;;;5068930;28;20056;-73
2022/01/04 03:36:33;;;;;;;27.77;6.18;;;7.60;99.90;;;;;;5052480;28;20057;-71
2022/01/04 03:39:04;;;;;;;22.00;6.47;;;7.60;99.90;;;;;;5068401;28;20183;-72
2022/01/04 03:41:32;;;;;;;21.48;5.63;;;7.60;99.90;;;;;;5069117;28;20099;-72
2022/01/04 03:43:59;;;;;;;24.23;7.43;;;7.60;99.90;;;;;;5052186;28;20049;-73
2022/01/04 03:46:27;;;;;;;23.05;7.63;;;7.60;99.90;;;;;;5051540;28;20095;-72
2022/01/04 03:48:54;;;;;;;18.42;5.70;;;7.70;99.90;;;;;;5068709;28;20198;-72
2022/01/04 03:51:21;;;;;;;21.60;6.43;;;7.70;99.90;;;;;;5068701;28;20103;-73
2022/01/04 03:53:48;;;;;;;18.02;6.07;;;7.70;99.90;;;;;;5061959;28;20102;-72
2022/01/04 03:56:15;;;;;;;19.63;6.38;;;7.70;99.90;;;;;;5088520;28;20060;-72
2022/01/04 03:58:41;;;;;;;30.45;6.65;;;7.70;99.90;;;;;;5088375;28;20102;-72
2022/01/04 04:01:09;;;;;;;21.83;7.13;;;7.70;99.90;;;;;;5070954;28;20110;-72
2022/01/04 04:03:37;;;;;;;14.30;5.65;;;7.70;99.90;;;;;;5072159;28;20048;-73
2022/01/04 04:06:04;;;;;;;17.58;5.32;;;7.90;99.90;;;;;;5089045;28;20105;-73
2022/01/04 04:08:31;;;;;;;21.13;5.63;;;7.70;99.90;;;;;;5071326;28;20175;-72
2022/01/04 04:10:58;;;;;;;20.00;5.75;;;7.70;99.90;;;;;;5072258;28;20056;-72
2022/01/04 04:13:24;;;;;;;26.90;6.05;;;7.80;99.90;;;;;;5073089;28;20094;-72
2022/01/04 04:15:51;;;;;;;21.33;6.05;;;7.80;99.90;;;;;;5090907;28;20112;-71
2022/01/04 04:18:18;;;;;;;25.42;5.82;;;7.70;99.90;;;;;;5071742;28;20048;-71
2022/01/04 04:20:47;;;;;;;20.13;6.00;;;7.80;99.90;;;;;;5088321;28;20109;-72
2022/01/04 04:23:14;;;;;;;20.27;6.60;;;7.70;99.90;;;;;;5082169;28;20063;-72
2022/01/04 04:25:41;;;;;;;19.95;6.55;;;7.70;99.90;;;;;;5053379;28;20060;-73
2022/01/04 04:28:08;;;;;;;21.35;6.13;;;7.70;99.90;;;;;;5055228;28;20079;-73
2022/01/04 04:30:35;;;;;;;22.48;6.65;;;7.70;99.90;;;;;;5055977;28;20044;-72
2022/01/04 04:33:03;;;;;;;24.27;6.68;;;7.70;99.90;;;;;;5055439;28;20044;-72
2022/01/04 04:35:31;;;;;;;24.38;6.80;;;7.70;99.90;;;;;;5055324;28;20451;-73
2022/01/04 04:38:00;;;;;;;23.98;6.50;;;7.70;99.90;;;;;;5072203;28;20515;-72
2022/01/04 04:40:27;;;;;;;18.48;6.65;;;7.70;99.90;;;;;;5055734;28;20554;-72
2022/01/04 04:42:54;;;;;;;24.50;7.75;;;7.70;99.90;;;;;;5071691;28;20080;-71
2022/01/04 04:45:21;;;;;;;19.52;7.10;;;7.70;99.90;;;;;;5072372;28;20052;-71
2022/01/04 04:47:48;;;;;;;24.65;7.82;;;7.70;99.90;;;;;;5055339;28;20542;-71
2022/01/04 04:50:15;;;;;;;25.92;7.95;;;7.70;99.90;;;;;;5055344;28;20057;-71
2022/01/04 04:52:41;;;;;;;23.60;7.25;;;7.70;99.90;;;;;;5070974;28;20041;-71
2022/01/04 04:55:11;;;;;;;23.77;7.65;;;7.70;99.90;;;;;;5070803;28;20052;-71
2022/01/04 04:57:38;;;;;;;26.13;8.75;;;7.70;99.90;;;;;;5071889;28;20500;-70
2022/01/04 05:00:06;;;;;;;28.38;7.78;;;7.70;99.90;;;;;;5073806;28;20117;-72
2022/01/04 05:02:33;;;;;;;18.67;7.25;;;7.70;99.90;;;;;;5068129;28;20163;-70
2022/01/04 05:05:00;;;;;;;22.25;7.25;;;7.70;99.90;;;;;;5068765;28;20048;-71
2022/01/04 05:07:27;;;;;;;25.80;8.38;;;7.70;99.90;;;;;;5070022;28;20101;-71
2022/01/04 05:09:54;;;;;;;26.67;8.52;;;7.70;99.90;;;;;;5073425;28;20363;-72
2022/01/04 05:12:22;;;;;;;24.70;7.68;;;7.70;99.90;;;;;;5072113;28;20040;-72
2022/01/04 05:14:49;;;;;;;24.65;8.82;;;7.70;99.90;;;;;;5069147;28;20047;-71
2022/01/04 05:17:16;;;;;;;20.48;7.75;;;7.70;99.90;;;;;;5070139;28;20041;-72
2022/01/04 05:19:43;;;;;;;27.35;8.27;;;7.70;99.90;;;;;;5071601;28;20060;-71
2022/01/04 05:22:10;;;;;;;24.20;8.35;;;7.70;99.90;;;;;;5069769;28;20048;-71
2022/01/04 05:24:37;;;;;;;20.77;7.90;;;7.70;99.90;;;;;;5067472;28;20487;-71
2022/01/04 05:27:04;;;;;;;28.33;7.53;;;7.70;99.90;;;;;;5071056;28;20098;-73
2022/01/04 05:29:33;;;;;;;23.65;9.07;;;7.70;99.90;;;;;;5070949;28;20412;-72
2022/01/04 05:31:59;;;;;;;24.48;8.88;;;7.70;99.90;;;;;;5068707;28;20045;-70
2022/01/04 05:34:26;;;;;;;23.60;8.52;;;7.80;99.90;;;;;;5067605;28;20561;-70
2022/01/04 05:36:53;;;;;;;27.17;7.70;;;7.70;99.90;;;;;;5070593;28;20516;-71
2022/01/04 05:39:21;;;;;;;26.65;7.95;;;7.70;99.90;;;;;;5071987;28;20095;-71
2022/01/04 05:41:48;;;;;;;24.55;8.35;;;7.60;99.90;;;;;;5072503;28;20052;-71
2022/01/04 05:44:15;;;;;;;20.98;7.75;;;7.60;99.90;;;;;;5072885;28;20110;-71
2022/01/04 05:46:43;;;;;;;19.17;8.52;;;7.60;99.90;;;;;;5072259;28;20048;-71
2022/01/04 05:49:10;;;;;;;24.98;9.02;;;7.50;99.90;;;;;;5069922;28;20037;-72
2022/01/04 05:51:37;;;;;;;26.02;9.65;;;7.50;99.90;;;;;;5080081;28;20041;-72
2022/01/04 05:54:04;;;;;;;27.73;9.48;;;7.50;99.90;;;;;;5066542;28;20105;-71
2022/01/04 05:56:31;;;;;;;27.05;9.25;;;7.40;99.90;;;;;;5072991;28;20117;-72
2022/01/04 05:58:58;;;;;;;31.30;10.75;;;7.40;99.90;;;;;;5070035;28;20044;-71
2022/01/04 06:01:25;;;;;;;29.85;8.68;;;7.40;99.90;;;;;;5068255;28;20052;-71
2022/01/04 06:03:53;;;;;;;28.23;9.52;;;7.40;99.90;;;;;;5067874;28;20094;-71
2022/01/04 06:06:20;;;;;;;23.48;9.25;;;7.40;99.90;;;;;;5078401;28;20048;-72
2022/01/04 06:08:48;;;;;;;26.38;8.35;;;7.40;99.90;;;;;;5070344;28;20048;-71
2022/01/04 06:11:42;;;;;;;27.90;8.88;;;7.40;99.90;;;;;;5066176;28;20052;-70
2022/01/04 06:16:50;;;;;;;22.73;8.25;;;7.40;99.90;;;;;;5064887;28;20051;-71
2022/01/04 06:19:18;;;;;;;31.45;8.82;;;7.50;99.90;;;;;;5063463;28;20134;-72
2022/01/04 06:21:45;;;;;;;24.55;8.10;;;7.50;99.90;;;;;;5062260;28;20480;-71
2022/01/04 06:24:11;;;;;;;20.73;8.05;;;7.50;99.90;;;;;;5063840;28;20093;-71
2022/01/04 06:26:38;;;;;;;26.08;8.98;;;7.50;99.90;;;;;;5067577;28;20049;-71
2022/01/04 06:29:05;;;;;;;27.33;8.40;;;7.60;99.90;;;;;;5069517;28;20512;-72
2022/01/04 06:31:32;;;;;;;20.42;8.00;;;7.60;99.90;;;;;;5068766;28;20041;-72
2022/01/04 06:33:59;;;;;;;26.90;9.85;;;7.60;99.90;;;;;;5078735;28;20496;-71
2022/01/04 06:36:27;;;;;;;27.02;8.25;;;7.70;99.90;;;;;;5075030;28;20052;-71
2022/01/04 06:38:54;;;;;;;26.85;8.63;;;7.70;99.90;;;;;;5068057;28;20061;-71
2022/01/04 06:41:21;;;;;;;23.45;7.43;;;7.70;99.90;;;;;;5065837;28;20534;-73
2022/01/04 06:43:48;;;;;;;31.65;7.35;;;7.70;99.90;;;;;;5068453;28;20072;-72
2022/01/04 06:46:15;;;;;;;20.98;8.07;;;7.70;99.90;;;;;;5068877;28;20056;-72
2022/01/04 06:48:42;;;;;;;20.23;7.20;;;7.70;99.90;;;;;;5069794;28;20098;-72
2022/01/04 06:51:10;;;;;;;28.13;7.28;;;7.70;99.90;;;;;;5070888;28;20563;-71
2022/01/04 06:53:38;;;;;;;21.88;6.65;;;7.70;99.90;;;;;;5081600;28;20040;-70
2022/01/04 06:56:05;;;;;;;22.80;6.18;;;7.70;99.90;;;;;;5069060;28;20135;-71
2022/01/04 06:58:32;;;;;;;20.48;6.57;;;7.70;99.90;;;;;;5071543;28;20059;-71
2022/01/04 07:00:59;;;;;;;15.93;5.93;;;7.60;99.90;;;;;;5066868;28;20071;-71
2022/01/04 07:03:26;;;;;;;19.98;5.43;;;7.60;99.90;;;;;;5061496;28;20076;-70
2022/01/04 07:05:53;;;;;;;20.77;5.53;;;7.60;99.90;;;;;;5067278;28;20547;-71
2022/01/04 07:08:19;;;;;;;15.18;5.70;;;7.60;99.90;;;;;;5076837;28;20530;-71
2022/01/04 07:10:48;;;;;;;17.27;6.32;;;7.60;99.90;;;;;;5069385;28;20106;-72
2022/01/04 07:13:14;;;;;;;21.52;7.15;;;7.60;99.90;;;;;;5066653;28;20102;-71
2022/01/04 07:15:41;;;;;;;21.23;6.82;;;7.60;99.90;;;;;;5066161;28;20056;-72
2022/01/04 07:18:08;;;;;;;14.05;6.32;;;7.60;99.90;;;;;;5067999;28;20059;-72
2022/01/04 07:20:35;;;;;;;19.13;6.82;;;7.60;99.90;;;;;;5070449;28;20438;-69
2022/01/04 07:23:02;;;;;;;19.38;6.22;;;7.60;99.90;;;;;;5070545;28;20063;-71
2022/01/04 07:25:29;;;;;;;19.20;7.10;;;7.60;99.90;;;;;;5077924;28;20049;-72
2022/01/04 07:27:57;;;;;;;15.00;6.65;;;7.60;99.90;;;;;;5079720;28;20044;-73
2022/01/04 07:30:24;;;;;;;13.63;6.05;;;7.50;99.90;;;;;;5077129;28;20079;-71
2022/01/04 07:32:51;;;;;;;20.40;6.93;;;7.60;99.90;;;;;;5070227;28;20086;-71
2022/01/04 07:35:18;;;;;;;15.48;6.25;;;7.60;99.90;;;;;;5066743;28;20048;-71
2022/01/04 07:37:45;;;;;;;13.88;5.60;;;7.60;99.90;;;;;;5069428;28;20105;-72
2022/01/04 07:40:12;;;;;;;12.90;5.30;;;7.60;99.90;;;;;;5064951;28;20060;-72
2022/01/04 07:42:40;;;;;;;12.43;5.47;;;7.60;99.90;;;;;;5064304;28;20052;-72
2022/01/04 07:45:09;;;;;;;17.73;4.88;;;7.50;99.90;;;;;;5065379;28;20102;-72
2022/01/04 07:47:37;;;;;;;11.63;4.82;;;7.50;99.90;;;;;;5070170;28;20080;-72
2022/01/04 07:50:05;;;;;;;17.80;4.95;;;7.60;99.90;;;;;;5065747;28;20063;-70
2022/01/04 07:52:33;;;;;;;16.83;4.88;;;7.50;99.90;;;;;;5067856;28;20048;-71
2022/01/04 07:55:00;;;;;;;15.80;4.88;;;7.50;99.90;;;;;;5067533;28;20048;-72
2022/01/04 07:57:27;;;;;;;15.13;6.25;;;7.50;99.90;;;;;;5065358;28;20055;-71
2022/01/04 07:59:54;;;;;;;19.90;6.30;;;7.70;99.90;;;;;;5065938;28;20060;-71
2022/01/04 08:02:22;;;;;;;17.73;5.60;;;7.50;99.90;;;;;;5066360;28;20492;-70
2022/01/04 08:04:49;;;;;;;21.38;5.68;;;7.50;99.90;;;;;;5065451;28;20049;-70
2022/01/04 08:07:16;;;;;;;17.13;5.03;;;7.50;99.90;;;;;;5067694;28;20094;-70
2022/01/04 08:09:43;;;;;;;18.40;5.53;;;7.50;99.90;;;;;;5064829;28;20052;-71
2022/01/04 08:12:10;;;;;;;17.98;5.57;;;7.50;99.90;;;;;;5068447;28;20052;-71
2022/01/04 08:14:37;;;;;;;20.98;5.88;;;7.50;99.90;;;;;;5067107;28;20130;-72
2022/01/04 08:17:04;;;;;;;23.23;5.97;;;7.50;99.90;;;;;;5076704;28;20389;-72
2022/01/04 08:19:32;;;;;;;13.88;4.97;;;7.50;99.90;;;;;;5064382;28;20114;-71
2022/01/04 08:21:59;;;;;;;15.70;4.38;;;7.50;99.90;;;;;;5069588;28;20102;-71
2022/01/04 08:24:26;;;;;;;20.17;4.60;;;7.50;99.90;;;;;;5075431;28;20101;-71
2022/01/04 08:26:52;;;;;;;24.65;5.82;;;7.50;99.90;;;;;;5075358;28;20057;-71
2022/01/04 08:29:19;;;;;;;14.05;5.90;;;7.70;99.90;;;;;;5066174;28;20044;-71
2022/01/04 08:31:46;;;;;;;13.85;5.57;;;7.50;99.90;;;;;;5066584;28;20105;-71
2022/01/04 08:34:13;;;;;;;13.23;5.47;;;7.50;99.90;;;;;;5066141;28;20477;-72
2022/01/04 08:36:41;;;;;;;16.90;6.40;;;7.50;99.90;;;;;;5067008;28;20052;-72
2022/01/04 08:39:14;;;;;;;16.83;6.68;;;7.50;99.90;;;;;;5076836;28;20091;-72
2022/01/04 08:41:41;;;;;;;18.48;5.47;;;7.50;99.90;;;;;;5065861;28;20056;-72
2022/01/04 08:44:08;;;;;;;17.33;5.90;;;7.60;99.90;;;;;;5066567;28;20514;-72
2022/01/04 08:46:36;;;;;;;22.17;6.22;;;7.50;99.90;;;;;;5078903;28;20463;-71
2022/01/04 08:49:03;;;;;;;20.00;5.63;;;7.50;99.90;;;;;;5067188;28;20044;-73
2022/01/04 08:51:31;;;;;;;18.65;6.10;;;7.50;99.90;;;;;;5079939;28;20110;-71
2022/01/04 08:53:59;;;;;;;15.55;5.13;;;7.50;99.90;;;;;;5070480;28;20045;-71
2022/01/04 08:56:26;;;;;;;12.23;5.70;;;7.40;99.90;;;;;;5076017;28;20102;-71
2022/01/04 08:58:53;;;;;;;8.30;2.97;;;7.30;99.90;;;;;;5068094;28;20045;-72
2022/01/04 09:01:20;;;;;;;14.07;3.45;;;7.30;99.90;;;;;;5065799;28;20110;-72
2022/01/04 09:03:47;;;;;;;11.18;3.08;;;7.30;99.90;;;;;;5065443;28;20561;-72
2022/01/04 09:06:15;;;;;;;6.88;2.10;;;7.30;99.90;;;;;;5069443;28;20041;-72
2022/01/04 09:08:42;;;;;;;7.57;1.95;;;7.10;99.90;;;;;;5067073;28;20479;-72
2022/01/04 09:11:11;;;;;;;7.05;2.10;;;7.00;99.90;;;;;;5066091;28;20098;-72
2022/01/04 09:13:41;;;;;;;4.32;1.73;;;7.00;99.90;;;;;;5071184;28;20045;-72
2022/01/04 09:18:53;;;;;;;5.53;1.40;;;7.10;99.90;;;;;;5068560;28;20133;-71
2022/01/04 09:21:23;;;;;;;4.18;1.17;;;6.90;99.90;;;;;;5071479;28;20060;-71
2022/01/04 09:23:50;;;;;;;5.43;1.13;;;6.90;99.90;;;;;;5067100;28;20424;-72
2022/01/04 09:26:19;;;;;;;6.10;1.00;;;6.90;99.90;;;;;;5068536;28;20306;-71
2022/01/04 09:28:47;;;;;;;4.78;1.40;;;6.90;99.90;;;;;;5071554;28;20044;-71
2022/01/04 09:31:14;;;;;;;8.93;1.30;;;6.90;99.90;;;;;;5070639;28;20041;-71
2022/01/04 09:33:42;;;;;;;8.00;1.35;;;6.90;99.90;;;;;;5070001;28;20084;-71
2022/01/04 09:36:09;;;;;;;2.95;1.20;;;6.90;99.90;;;;;;5081046;28;20053;-72
2022/01/04 09:38:36;;;;;;;7.35;1.30;;;6.90;99.90;;;;;;5073807;28;20048;-70
2022/01/04 09:41:03;;;;;;;5.95;1.40;;;6.90;99.90;;;;;;5072103;28;20045;-70
2022/01/04 09:43:32;;;;;;;7.30;1.52;;;7.00;99.90;;;;;;5072979;28;20434;-71
2022/01/04 09:46:00;;;;;;;6.25;1.48;;;7.00;99.90;;;;;;5078880;28;20048;-71
2022/01/04 09:48:27;;;;;;;5.50;1.50;;;7.00;99.90;;;;;;5070363;28;20052;-72
2022/01/04 09:50:56;;;;;;;6.13;1.48;;;6.90;99.90;;;;;;5073183;28;20098;-71
2022/01/04 09:53:24;;;;;;;5.75;1.38;;;7.00;99.90;;;;;;5070794;28;20137;-72
2022/01/04 09:55:53;;;;;;;7.53;1.20;;;7.00;99.90;;;;;;5080458;28;20056;-71
2022/01/04 09:58:21;;;;;;;2.70;1.02;;;7.00;99.90;;;;;;5079560;28;20105;-72
2022/01/04 10:00:51;;;;;;;3.17;1.40;;;6.90;99.90;;;;;;5068560;28;20070;-72
2022/01/04 10:03:21;;;;;;;4.63;0.90;;;6.80;99.90;;;;;;5075460;28;20099;-71
2022/01/04 10:05:49;;;;;;;3.22;1.10;;;6.80;99.90;;;;;;5067741;28;20048;-72
2022/01/04 10:08:16;;;;;;;2.90;0.90;;;6.70;99.90;;;;;;5071364;28;20496;-71
2022/01/04 10:10:43;;;;;;;3.13;1.23;;;6.60;99.90;;;;;;5068154;28;20052;-72
2022/01/04 10:13:15;;;;;;;4.80;1.00;;;6.50;99.90;;;;;;5070999;28;20090;-71
2022/01/04 10:15:45;;;;;;;2.47;0.80;;;6.50;99.90;;;;;;5070766;28;20057;-70
2022/01/04 10:18:24;;;;;;;2.70;0.90;;;6.40;99.90;;;;;;5070026;28;20053;-71
2022/01/04 10:21:10;;;;;;;3.15;0.98;;;6.40;99.90;;;;;;5069080;28;20052;-71
2022/01/04 10:23:46;;;;;;;4.45;1.10;;;6.30;99.90;;;;;;5067821;28;20480;-71
2022/01/04 10:26:13;;;;;;;9.15;1.17;;;6.20;99.90;;;;;;5067526;28;20049;-71
2022/01/04 10:28:42;;;;;;;3.10;1.00;;;6.20;99.90;;;;;;5078339;28;20049;-71
2022/01/04 10:31:11;;;;;;;8.15;0.90;;;6.20;99.90;;;;;;5063918;28;20049;-72
2022/01/04 10:33:40;;;;;;;2.30;0.88;;;6.20;99.90;;;;;;5069590;28;20044;-71
2022/01/04 10:36:11;;;;;;;4.32;1.00;;;6.20;99.90;;;;;;5069257;28;20048;-72
2022/01/04 10:38:40;;;;;;;2.35;0.60;;;6.20;99.90;;;;;;5069319;28;20048;-72
2022/01/04 10:41:08;;;;;;;5.18;1.00;;;6.30;99.90;;;;;;5065373;28;20497;-72
2022/01/04 10:43:39;;;;;;;4.88;1.15;;;6.30;99.90;;;;;;5066259;28;20052;-71
2022/01/04 10:46:07;;;;;;;5.53;1.42;;;6.50;99.90;;;;;;5069828;28;20094;-71
2022/01/04 10:48:36;;;;;;;4.80;1.00;;;6.30;99.90;;;;;;5069990;28;20101;-72
2022/01/04 10:51:08;;;;;;;3.72;1.13;;;6.30;99.90;;;;;;5069257;28;20053;-71
2022/01/04 10:53:37;;;;;;;4.03;1.10;;;6.30;99.90;;;;;;5068047;28;20550;-71
2022/01/04 10:56:06;;;;;;;3.77;1.00;;;6.20;99.90;;;;;;5065700;28;20091;-71
2022/01/04 10:58:37;;;;;;;5.60;0.70;;;6.20;99.90;;;;;;5068869;28;20496;-71
2022/01/04 11:01:06;;;;;;;;;;;6.20;99.90;;;;;;5067984;28;20044;-71
2022/01/04 11:03:34;;;;;;;5.75;1.30;;;6.10;99.90;;;;;;5067303;28;20287;-71
2022/01/04 11:06:12;;;;;;;3.17;0.68;;;6.20;99.90;;;;;;5068274;28;20048;-72
2022/01/04 11:08:40;;;;;;;2.88;0.90;;;6.20;99.90;;;;;;5065710;28;20045;-73
2022/01/04 11:11:07;;;;;;;5.50;0.80;;;6.60;99.90;;;;;;5064885;28;20051;-73
2022/01/04 11:13:35;;;;;;;4.85;1.20;;;6.20;99.90;;;;;;5080962;28;20045;-72
2022/01/04 11:16:02;;;;;;;4.47;1.02;;;6.20;99.90;;;;;;5078082;28;20145;-72
2022/01/04 11:18:30;;;;;;;9.63;0.98;;;6.20;99.90;;;;;;5067608;28;20048;-72
2022/01/04 11:20:58;;;;;;;7.88;1.50;;;6.30;99.90;;;;;;5068127;28;20106;-71
2022/01/04 11:23:28;;;;;;;4.75;0.90;;;6.10;99.90;;;;;;5066205;28;20102;-71
2022/01/04 11:25:55;;;;;;;6.20;1.23;;;6.00;99.90;;;;;;5071164;28;20075;-72
2022/01/04 11:28:24;;;;;;;5.93;1.25;;;6.20;99.90;;;;;;5066576;28;20504;-72
2022/01/04 11:31:16;;;;;;;4.70;1.38;;;6.10;99.90;;;;;;5068830;28;20040;-72
2022/01/04 11:33:51;;;;;;;6.57;1.73;;;6.00;99.90;;;;;;5068747;28;20571;-72
2022/01/04 11:36:20;;;;;;;5.05;0.85;;;6.10;99.90;;;;;;5068370;28;20411;-72
2022/01/04 11:38:49;;;;;;;1.58;0.82;;;6.10;99.90;;;;;;5066668;28;20045;-72
2022/01/04 11:41:25;;;;;;;2.55;0.90;;;6.10;99.90;;;;;;5066623;28;20057;-72
2022/01/04 11:43:53;;;;;;;3.55;1.05;;;6.10;99.90;;;;;;5064661;28;20045;-72
2022/01/04 11:46:35;;;;;;;5.72;1.33;;;6.10;99.90;;;;;;5067943;28;20496;-72
2022/01/04 11:49:11;;;;;;;5.05;0.93;;;6.10;99.90;;;;;;5066750;28;20056;-72
2022/01/04 11:51:41;;;;;;;2.85;1.13;;;6.10;99.90;;;;;;5051998;28;20055;-72
2022/01/04 11:54:28;;;;;;;6.68;1.48;;;6.20;99.90;;;;;;5050606;28;20057;-72
2022/01/04 11:56:58;;;;;;;3.25;0.90;;;6.30;99.90;;;;;;5064829;28;20088;-72
2022/01/04 11:59:26;;;;;;;4.68;1.30;;;6.40;99.90;;;;;;5070973;28;20048;-71
2022/01/04 12:01:54;;;;;;;4.50;1.20;;;6.50;99.90;;;;;;5071378;28;20093;-71
2022/01/04 12:04:51;;;;;;;4.97;1.25;;;6.60;99.90;;;;;;5068370;28;20460;-71
2022/01/04 12:07:44;;;;;;;6.55;1.80;;;6.60;99.90;;;;;;5071989;28;20076;-71
2022/01/04 12:10:35;;;;;;;4.13;1.73;;;6.60;99.90;;;;;;5071888;28;20064;-71
2022/01/04 12:13:03;;;;;;;4.57;1.50;;;6.60;99.90;;;;;;5071299;28;20389;-71
2022/01/04 12:15:51;;;;;;;7.28;1.90;;;6.70;99.90;;;;;;5057429;28;20496;-70
2022/01/04 12:19:01;;;;;;;8.45;2.10;;;6.60;99.90;;;;;;5061366;28;20438;-71
2022/01/04 12:21:37;;;;;;;8.63;2.00;;;6.60;99.90;;;;;;5071719;28;20131;-71
2022/01/04 12:24:06;;;;;;;9.82;1.63;;;6.70;99.90;;;;;;5071251;28;20049;-71
2022/01/04 12:26:35;;;;;;;4.55;1.60;;;6.70;99.90;;;;;;5071406;28;20053;-72
2022/01/04 12:29:20;;;;;;;6.95;1.30;;;6.70;99.90;;;;;;5071436;28;20102;-71
2022/01/04 12:31:49;;;;;;;8.20;1.90;;;6.70;99.90;;;;;;5071139;28;20106;-72
2022/01/04 12:34:58;;;;;;;7.90;2.92;;;6.50;99.90;;;;;;5053519;28;20049;-70
2022/01/04 12:37:25;;;;;;;17.88;1.50;;;6.50;99.90;;;;;;5051609;28;20140;-71
2022/01/04 12:39:52;;;;;;;12.45;2.30;;;6.40;99.90;;;;;;5064804;28;20045;-71
2022/01/04 12:42:21;;;;;;;8.57;1.88;;;6.40;99.90;;;;;;5052649;28;20056;-71
2022/01/04 12:44:53;;;;;;;4.40;1.77;;;6.30;99.90;;;;;;5060176;28;20102;-71
2022/01/04 12:47:21;;;;;;;4.22;1.33;;;6.60;99.90;;;;;;5073691;28;20045;-71
2022/01/04 12:49:48;;;;;;;7.60;1.15;;;6.30;99.90;;;;;;5075589;28;20044;-71
2022/01/04 12:52:19;;;;;;;8.07;1.20;;;6.30;99.90;;;;;;5071388;28;20132;-72
2022/01/04 12:54:46;;;;;;;7.25;2.03;;;6.30;99.90;;;;;;5074766;28;20072;-69
2022/01/04 12:57:15;;;;;;;4.30;1.45;;;6.30;99.90;;;;;;5075240;28;20110;-71
2022/01/04 12:59:45;;;;;;;7.85;2.22;;;6.30;99.90;;;;;;5074939;28;20080;-70
2022/01/04 13:02:15;;;;;;;8.75;1.50;;;6.30;99.90;;;;;;5074647;28;20048;-70
2022/01/04 13:04:45;;;;;;;7.53;1.30;;;6.30;99.90;;;;;;5074996;28;20047;-71
2022/01/04 13:07:21;;;;;;;4.10;1.38;;;6.30;99.90;;;;;;5075319;28;20102;-71